Flugplatz Bremen

Bericht für EDDW

vom 23.01. um 15:20 UTC

Wind 6 kt aus 80°

Sichtweite 9000 m

gering bewölkt in 1600 ft

Temperatur -4.0°C

Taupunkt -7.0°C

Luftfeuchtigkeit 80%

Luftdruck 1003 hPa

keine wesentliche Wetteränderung innerhalb den nächsten 2 Stunden zu erwarten

EDDW 231520Z 08006KT 9000 FEW016 M04/M07 Q1003 NOSIG

Prognose für EDDW

vom 23.01. um 11:00 UTC

Zwischen 12:00 UTC und 12:00 UTC zeitweise

aufgebrochene Bewölkung in 800 ft


Zwischen 12:00 UTC und 12:00 UTC

Wind 7 kt aus 100°

Sichtweite 8000 m

keine Wolken


Zwischen 20:00 UTC und 10:00 UTC zeitweise mit einer Wahrscheinlichkeit von 30%

Sichtweite 4000 m

feuchter Dunst

TAF EDDW 231100Z 2312/2412 10007KT 8000 NSC TEMPO 2312/2412 BKN008 PROB30 TEMPO 2320/2410 4000 BR
Impressum